Terminal Aerodrome Forecast
Issued by NWS Jacksonville, FL

Home | Current Version | Previous Version | Text Only | Print | Product List | Glossary On
Versions: 1 2 3 4 5 6 7 8 9 10 11 12 13 14 15 16 17 18 19 20
000
FTUS42 KJAX 072324
TAFJAX
TAF
KJAX 072324Z 0800/0824 VRB03KT P6SM FEW250
     FM080400 VRB02KT 6SM BR FEW005 SCT015
     FM080600 VRB02KT 2SM BR SCT005 BKN015
     FM080800 00000KT 1SM BR SCT001 OVC006
     FM081230 31003KT 5SM BR SCT007 BKN018
     FM081400 31008KT P6SM FEW020 SCT250=

USA.gov is the U.S. government's official web portal to all federal, state and local government web resources and services.